Latest Weather Observations for Horsham

IDV60801

Issued at 5:02 pm EDT Thursday 28 January 2021 (issued every 10 minutes, with the page automatically refreshed every 10 minutes)

About weather observations | Map of weather stations | Latest weather observations for VIC | Other Formats
Station Details ID: 079100 Name: HORSHAM AERODROME Lat: -36.67 Lon: 142.17 Height: 133.8 m
Data from the previous 72 hours. | See also: Recent months at Horsham
Date/Time
EDT
Temp
°C
App
Temp
°C
Dew
Point
°C
Rel
Hum
%
Delta-T
°C
Wind Press
QNH
hPa
Press
MSL
hPa
Rain since
9am
mm
Dir  Spd
km/h
Gust
km/h
Spd
kts
Gust
kts
28/05:00pm 26.5 21.7 14.6 48 7.2 ENE 33 44 18 24 1010.9 1010.4 0.0
28/04:30pm 27.4 21.4 14.4 45 7.8 ENE 39 50 21 27 1011.0 1010.5 0.0
28/04:00pm 27.0 20.9 14.1 45 7.7 ENE 39 48 21 26 1011.2 1010.7 0.0
28/03:30pm 27.7 22.4 14.3 43 8.1 NE 35 48 19 26 1011.6 1011.1 0.0
28/03:00pm 28.1 23.2 14.3 42 8.3 ENE 33 46 18 25 1011.9 1011.4 0.0
28/02:30pm 27.6 22.6 13.9 43 8.2 ENE 33 50 18 27 1012.0 1011.5 0.0
28/02:27pm 28.3 23.6 14.2 42 8.5 ENE 32 50 17 27 1012.0 1011.5 0.0
28/02:00pm 26.6 21.1 13.7 45 7.7 NE 35 44 19 24 1012.6 1012.1 0.0
28/01:30pm 26.8 21.8 13.9 45 7.7 NE 33 46 18 25 1012.9 1012.4 0.0
28/01:00pm 27.6 22.5 13.2 41 8.5 ENE 32 41 17 22 1013.1 1012.6 0.0
28/12:30pm 25.8 19.7 13.0 45 7.5 ENE 37 48 20 26 1013.4 1012.9 0.0
28/12:00pm 28.0 22.3 13.1 39 8.8 ENE 35 50 19 27 1013.2 1012.7 0.0
28/11:30am 25.0 19.3 12.9 47 7.0 E 35 46 19 25 1013.3 1012.8 0.0
28/11:00am 23.9 18.4 12.5 49 6.6 E 33 43 18 23 1013.8 1013.2 0.0
28/10:30am 22.7 17.4 12.6 53 5.8 E 32 39 17 21 1013.8 1013.2 0.0
28/10:00am 21.6 16.7 12.5 56 5.2 E 30 35 16 19 1014.2 1013.7 0.0
28/09:30am 20.8 15.9 12.5 59 4.7 E 30 35 16 19 1014.7 1014.2 0.0
28/09:00am 19.9 16.2 12.7 63 4.1 ESE 24 30 13 16 1014.6 1014.1 0.0
28/08:30am 19.0 15.2 12.5 66 3.7 E 24 30 13 16 1014.3 1013.8 0.0
28/08:00am 18.2 14.8 12.6 70 3.1 ESE 22 28 12 15 1014.1 1013.6 0.0
28/07:30am 17.5 14.5 12.6 73 2.7 ESE 20 26 11 14 1013.3 1012.8 0.0
28/07:00am 16.5 13.7 12.7 78 2.1 ESE 19 22 10 12 1013.4 1012.9 0.0
28/06:30am 16.0 13.2 12.6 80 1.9 ESE 19 26 10 14 1013.3 1012.8 0.0
28/06:00am 15.4 12.9 12.2 81 1.8 SE 17 20 9 11 1013.0 1012.5 0.0
28/05:30am 15.5 12.4 12.1 80 1.9 ESE 20 24 11 13 1012.6 1012.1 0.0
28/05:00am 15.5 12.4 12.1 80 1.9 ESE 20 24 11 13 1012.5 1012.0 0.0
28/04:30am 15.3 12.5 11.5 78 2.1 ESE 17 20 9 11 1012.3 1011.8 0.0
28/04:00am 15.8 12.8 12.0 78 2.1 SE 19 22 10 12 1012.4 1011.9 0.0
28/03:30am 16.1 12.9 11.9 76 2.3 SE 20 22 11 12 1012.6 1012.1 0.0
28/03:00am 16.3 13.1 11.9 75 2.4 SE 20 28 11 15 1012.6 1012.1 0.0
28/02:30am 16.9 13.0 12.0 73 2.7 SE 24 32 13 17 1012.9 1012.4 0.0
28/02:00am 17.2 13.7 12.1 72 2.8 SE 22 32 12 17 1013.2 1012.7 0.0
28/01:30am 17.6 14.1 12.3 71 2.9 SE 22 30 12 16 1013.4 1012.9 0.0
28/01:00am 17.8 13.7 12.7 72 2.9 SE 26 32 14 17 1013.1 1012.6 0.0
28/12:30am 17.9 13.5 13.0 73 2.8 SE 28 35 15 19 1013.7 1013.1 0.0
28/12:00am 18.0 13.4 12.2 69 3.2 SE 28 37 15 20 1013.3 1012.8 0.0
 
Date/Time
EDT
Temp
°C
App
Temp
°C
Dew
Point
°C
Rel
Hum
%
Delta-T
°C
Wind Press
QNH
hPa
Press
MSL
hPa
Rain since
9am
mm
Dir  Spd
km/h
Gust
km/h
Spd
kts
Gust
kts
27/11:30pm 18.4 13.2 11.7 65 3.7 SE 30 41 16 22 1013.6 1013.0 0.0
27/11:00pm 18.7 12.8 10.5 59 4.4 SE 32 43 17 23 1013.6 1013.0 0.0
27/10:30pm 19.5 13.7 9.4 52 5.4 SE 30 37 16 20 1013.4 1012.9 0.0
27/10:00pm 19.4 14.6 7.5 46 6.1 SE 22 26 12 14 1013.3 1012.8 0.0
27/09:30pm 20.1 15.3 5.7 39 7.2 SE 20 28 11 15 1013.3 1012.8 0.0
27/09:00pm 21.3 14.8 4.8 34 8.1 SE 28 37 15 20 1013.0 1012.5 0.0
27/08:30pm 22.2 14.9 4.3 31 8.8 SSE 32 39 17 21 1012.5 1012.0 0.0
27/08:00pm 23.3 15.9 3.8 28 9.6 SSE 32 41 17 22 1012.5 1012.0 0.0
27/07:30pm 24.6 17.5 3.3 25 10.5 SE 30 39 16 21 1012.1 1011.6 0.0
27/07:00pm 25.3 17.5 2.7 23 11.0 SE 33 41 18 22 1011.6 1011.1 0.0
27/06:30pm 26.1 18.5 2.7 22 11.5 SE 32 39 17 21 1011.4 1010.9 0.0
27/06:00pm 26.9 19.6 2.7 21 11.9 SE 30 39 16 21 1011.6 1011.1 0.0
27/05:30pm 26.3 19.5 2.9 22 11.5 ESE 28 37 15 20 1011.8 1011.3 0.0
27/05:00pm 26.5 19.7 3.1 22 11.6 ESE 28 43 15 23 1011.8 1011.3 0.0
27/04:30pm 26.6 20.7 3.8 23 11.4 SE 24 35 13 19 1012.1 1011.6 0.0
27/04:00pm 27.2 20.9 3.7 22 11.8 ESE 26 41 14 22 1012.3 1011.8 0.0
27/03:30pm 26.0 18.7 2.7 22 11.4 SE 30 59 16 32 1012.7 1012.2 0.0
27/03:23pm 27.2 20.9 5.5 25 11.3 SE 28 59 15 32 1012.6 1012.1 0.0
27/03:00pm 24.7 18.3 3.4 25 10.5 SE 26 35 14 19 1013.1 1012.6 0.0
27/02:30pm 24.3 18.5 4.6 28 9.9 SE 24 37 13 20 1013.2 1012.7 0.0
27/02:00pm 24.7 18.9 4.5 27 10.1 ESE 24 41 13 22 1013.6 1013.0 0.0
27/01:30pm 24.1 18.9 5.5 30 9.5 SE 22 37 12 20 1013.7 1013.1 0.0
27/01:00pm 22.0 17.0 4.6 32 8.6 ESE 20 35 11 19 1014.1 1013.6 0.0
27/12:30pm 21.8 17.1 5.3 34 8.2 ESE 19 32 10 17 1014.2 1013.7 0.0
27/12:00pm 21.0 16.1 5.0 35 7.9 SE 20 33 11 18 1014.3 1013.8 0.0
27/11:30am 20.6 14.8 6.2 39 7.3 ESE 26 37 14 20 1014.5 1014.0 0.0
27/11:00am 19.0 13.4 5.5 41 6.6 SSE 24 33 13 18 1014.7 1014.2 0.0
27/10:30am 17.8 11.3 4.7 42 6.3 SE 28 43 15 23 1014.7 1014.2 0.0
27/10:22am 17.5 10.3 5.1 44 6.0 SE 32 43 17 23 1014.7 1014.2 0.0
27/10:00am 16.7 7.8 5.3 47 5.5 SE 41 52 22 28 1014.5 1014.0 0.0
27/09:30am 16.0 6.8 5.6 50 5.0 SE 43 56 23 30 1014.7 1014.2 0.0
27/09:00am 14.4 4.5 5.0 53 4.4 SE 46 57 25 31 1014.3 1013.8 0.0
27/08:37am 13.6 5.1 5.0 56 4.0 SE 39 61 21 33 1014.5 1014.0 0.0
27/08:30am 13.3 4.8 5.2 58 3.8 SE 39 48 21 26 1014.4 1013.9 0.0
27/08:00am 12.2 3.8 5.4 63 3.2 SE 39 48 21 26 1014.1 1013.6 0.0
27/07:48am 11.9 5.6 5.5 65 3.0 SE 28 46 15 25 1013.9 1013.4 0.0
27/07:30am 11.2 3.9 5.3 67 2.7 SE 33 43 18 23 1013.9 1013.4 0.0
27/07:00am 10.4 3.6 5.2 70 2.4 SE 30 41 16 22 1013.6 1013.0 0.0
27/06:30am 10.2 3.8 5.4 72 2.2 SE 28 41 15 22 1013.0 1012.5 0.0
27/06:00am 9.3 4.5 5.5 77 1.7 SE 20 26 11 14 1013.1 1012.6 0.0
27/05:30am 9.7 4.6 6.1 78 1.7 SE 22 30 12 16 1012.7 1012.2 0.0
27/05:00am 8.4 4.6 5.7 83 1.2 SE 15 22 8 12 1012.8 1012.3 0.0
27/04:30am 8.2 4.3 5.3 82 1.3 SE 15 17 8 9 1012.6 1012.1 0.0
27/04:00am 9.2 5.5 6.1 81 1.4 SSE 15 20 8 11 1012.7 1012.2 0.0
27/03:30am 8.4 4.7 6.2 86 1.0 SSE 15 19 8 10 1012.1 1011.6 0.0
27/03:00am 8.9 5.3 6.7 86 1.0 SSE 15 17 8 9 1012.1 1011.6 0.0
27/02:30am 10.0 6.9 7.4 84 1.2 SE 13 19 7 10 1012.3 1011.8 0.0
27/02:00am 10.6 7.2 7.8 83 1.4 SE 15 20 8 11 1012.2 1011.7 0.0
27/01:30am 11.5 7.9 8.2 80 1.6 SE 17 20 9 11 1012.2 1011.7 0.0
27/01:00am 12.8 8.8 8.9 77 2.0 SSE 20 28 11 15 1012.1 1011.6 0.0
27/12:30am 13.5 9.2 9.4 76 2.1 SSE 22 32 12 17 1011.9 1011.4 0.0
27/12:00am 13.9 9.6 9.5 75 2.3 SSE 22 32 12 17 1011.6 1011.1 0.0
 
Date/Time
EDT
Temp
°C
App
Temp
°C
Dew
Point
°C
Rel
Hum
%
Delta-T
°C
Wind Press
QNH
hPa
Press
MSL
hPa
Rain since
9am
mm
Dir  Spd
km/h
Gust
km/h
Spd
kts
Gust
kts
26/11:30pm 13.7 10.4 9.7 77 2.1 SSE 17 22 9 12 1011.3 1010.8 0.0
26/11:00pm 14.9 10.4 10.1 73 2.5 SSE 24 32 13 17 1010.9 1010.4 0.0
26/10:30pm 15.5 10.7 10.3 71 2.8 SSE 26 35 14 19 1010.5 1010.0 0.0
26/10:00pm 16.0 11.1 9.9 67 3.2 SSE 26 35 14 19 1010.1 1009.6 0.0
26/09:30pm 17.1 11.4 9.8 62 3.9 SSE 30 43 16 23 1009.7 1009.2 0.0
26/09:00pm 17.8 12.1 9.7 59 4.3 SSE 30 37 16 20 1009.2 1008.7 0.0
26/08:30pm 19.0 12.5 8.9 52 5.3 SSE 33 43 18 23 1008.6 1008.1 0.0
26/08:00pm 20.7 13.8 9.0 47 6.2 S 35 44 19 24 1008.0 1007.5 0.0
26/07:30pm 21.8 14.9 9.0 44 6.9 S 35 44 19 24 1007.3 1006.7 0.0
26/07:00pm 23.1 16.7 8.4 39 7.9 S 32 43 17 23 1006.8 1006.2 0.0
26/06:30pm 23.4 17.6 7.9 37 8.2 SSW 28 35 15 19 1006.3 1005.7 0.0
26/06:00pm 24.5 19.7 8.9 37 8.5 S 24 32 13 17 1006.1 1005.5 0.0
26/05:30pm 24.9 20.0 8.4 35 8.9 S 24 33 13 18 1005.9 1005.3 0.0
26/05:00pm 23.9 18.7 8.7 38 8.2 S 26 32 14 17 1005.8 1005.2 0.0
26/04:30pm 24.4 20.7 9.6 39 8.1 S 19 30 10 16 1005.5 1005.0 0.0
26/04:00pm 25.2 21.6 10.6 40 8.2 S 20 32 11 17 1005.3 1004.8 0.0
26/03:30pm 24.8 20.0 10.3 40 8.1 S 26 35 14 19 1005.2 1004.7 0.0
26/03:00pm 25.5 21.7 11.3 41 8.1 S 22 35 12 19 1005.1 1004.6 0.0
26/02:30pm 22.9 17.9 11.0 47 6.6 S 28 39 15 21 1005.2 1004.7 0.0
26/02:05pm 24.5 19.7 11.5 44 7.4 SSW 28 48 15 26 1005.3 1004.8 0.0
26/02:00pm 24.7 20.3 11.6 44 7.5 SSW 26 33 14 18 1005.4 1004.9 0.0
26/01:30pm 25.5 21.4 12.7 45 7.4 SSW 26 39 14 21 1005.3 1004.8 0.0
26/01:00pm 22.4 16.8 11.5 50 6.1 SSW 32 43 17 23 1005.6 1005.1 0.0
26/12:30pm 21.7 17.5 14.6 64 4.2 SSW 30 39 16 21 1005.2 1004.7 0.0
26/12:00pm 21.6 18.0 15.2 67 3.8 SW 28 43 15 23 1005.2 1004.7 0.0
26/11:30am 21.8 18.3 15.4 67 3.8 SSW 28 35 15 19 1004.8 1004.3 0.0
26/11:00am 20.0 16.3 15.0 73 3.0 SSW 28 35 15 19 1004.8 1004.3 0.0
26/10:30am 19.5 15.8 15.0 75 2.7 SSW 28 35 15 19 1004.6 1004.1 0.0
26/10:10am 19.7 17.0 15.6 77 2.4 SSW 24 30 13 16 1004.5 1004.0 0.0
26/10:00am 19.9 17.4 16.2 79 2.2 SSW 24 30 13 16 1004.4 1003.9 0.0
26/09:30am 19.5 15.9 16.3 82 1.9 SSW 30 35 16 19 1004.0 1003.5 0.0
26/09:00am 18.3 15.5 16.3 88 1.2 SSW 26 33 14 18 1003.7 1003.2 6.6
26/08:30am 18.2 15.2 16.7 91 0.9 SSW 28 33 15 18 1003.2 1002.7 6.6
26/08:00am 18.3 15.8 17.0 92 0.8 SW 26 33 14 18 1002.5 1002.0 6.6
26/07:46am 18.4 16.7 17.2 93 0.7 SW 22 33 12 18 1002.4 1001.9 6.6
26/07:30am 18.3 16.9 17.0 92 0.8 SSW 20 26 11 14 1002.1 1001.6 6.6
26/07:16am 18.5 17.2 17.2 92 0.8 SSW 20 30 11 16 1002.0 1001.5 6.6
26/07:00am 18.6 17.0 17.4 93 0.7 SSW 22 30 12 16 1001.7 1001.2 6.6
26/06:47am 18.6 17.3 17.3 92 0.8 SW 20 26 11 14 1001.5 1001.0 6.6
26/06:30am 18.6 17.3 17.3 92 0.8 SW 20 26 11 14 1001.2 1000.7 6.6
26/06:00am 18.8 16.4 17.3 91 0.9 SW 26 33 14 18 1000.8 1000.2 6.6
26/05:50am 18.9 16.6 17.6 92 0.8 SW 26 33 14 18 1000.7 1000.1 6.6
26/05:30am 19.1 16.9 17.9 93 0.7 SW 26 32 14 17 1000.5 999.9 6.6
26/05:22am 19.0 17.3 18.0 94 0.6 SW 24 28 13 15 1000.4 999.8 6.6
26/05:00am 19.1 17.8 18.1 94 0.6 SW 22 28 12 15 1000.2 999.6 6.6
26/04:30am 19.2 17.9 18.2 94 0.6 WSW 22 35 12 19 999.9 999.3 6.6
26/04:00am 19.5 18.1 18.7 95 0.5 SW 24 30 13 16 999.8 999.2 6.6
26/03:30am 19.8 19.6 19.3 97 0.3 WSW 19 24 10 13 999.7 999.1 6.6
26/03:00am 20.0 20.3 19.7 98 0.2 WSW 17 24 9 13 999.7 999.1 6.6
26/02:37am 20.2 20.3 19.9 98 0.2 SW 19 24 10 13 999.8 999.2 6.6
26/02:30am 20.2 20.7 20.0 99 0.1 WSW 17 22 9 12 999.9 999.3 6.6
26/02:00am 20.3 20.8 20.1 99 0.1 SW 17 20 9 11 999.8 999.2 6.6
26/01:30am 20.3 20.4 20.0 98 0.2 WSW 19 26 10 14 999.7 999.1 6.6
26/01:03am 20.7 21.8 20.4 98 0.2 WSW 15 19 8 10 999.8 999.2 6.0
26/01:00am 20.8 21.8 20.3 97 0.3 WSW 15 20 8 11 999.8 999.2 6.0
26/12:59am 20.7 21.7 20.2 97 0.3 W 15 20 8 11 999.8 999.2 5.8
26/12:44am 20.8 21.4 20.3 97 0.3 WSW 17 22 9 12 999.7 999.1 5.6
26/12:30am 21.3 22.8 20.6 96 0.5 WSW 13 17 7 9 999.8 999.2 4.8
26/12:04am 21.3 25.3 20.6 96 0.5 CALM 0 0 0 0 999.6 999.0 4.8
26/12:00am 21.3 25.3 20.6 96 0.5 CALM 0 0 0 0 999.6 999.0 4.8
 
Date/Time
EDT
Temp
°C
App
Temp
°C
Dew
Point
°C
Rel
Hum
%
Delta-T
°C
Wind Press
QNH
hPa
Press
MSL
hPa
Rain since
9am
mm
Dir  Spd
km/h
Gust
km/h
Spd
kts
Gust
kts
25/11:30pm 21.0 23.8 20.5 97 0.3 N 6 7 3 4 999.6 999.0 4.8
25/11:00pm 20.8 22.9 20.1 96 0.5 N 9 13 5 7 999.8 999.2 4.8
25/10:30pm 20.8 22.2 20.3 97 0.3 NE 13 15 7 8 1000.0 999.4 4.8
25/10:00pm 20.2 21.7 19.7 97 0.3 SE 11 17 6 9 1000.0 999.4 4.8
25/09:30pm 20.4 20.4 19.7 96 0.4 NE 19 22 10 12 999.2 998.6 4.4
25/09:00pm 20.4 22.2 19.6 95 0.5 SE 9 11 5 6 999.9 999.3 4.0
25/08:30pm 20.5 21.1 19.5 94 0.6 SSE 15 19 8 10 999.2 998.6 3.6
25/08:00pm 20.9 19.0 19.4 91 1.0 SW 28 37 15 20 1000.1 999.5 2.8
25/07:39pm 21.2 18.2 18.6 85 1.6 WSW 32 50 17 27 999.5 998.9 2.0
25/07:30pm 21.0 18.8 18.6 86 1.5 WSW 28 37 15 20 999.6 999.0 2.0
25/07:03pm 22.5 15.9 18.1 76 2.8 W 50 70 27 38 998.8 998.2 0.8
25/07:00pm 23.0 16.6 17.7 72 3.3 W 48 70 26 38 998.7 998.1 0.6
25/06:57pm 23.6 17.8 17.3 67 3.9 WNW 44 70 24 38 998.5 997.9 0.6
25/06:38pm 25.8 22.3 17.4 59 5.3 WNW 32 57 17 31 997.7 997.2 0.2
25/06:30pm 24.6 22.1 18.1 67 4.1 WNW 28 33 15 18 997.8 997.3 0.2
25/06:00pm 25.5 22.9 17.9 63 4.8 NW 28 35 15 19 998.3 997.7 0.0
25/05:30pm 29.4 24.7 14.8 41 8.9 NNW 33 52 18 28 997.8 997.3 0.0
25/05:29pm 30.7 25.7 13.5 35 10.4 NW 32 52 17 28 997.8 997.3 0.0

Other formats

Comma delimited format used in spreadsheet applications
http://www.bom.gov.au/fwo/IDV60801/IDV60801.95839.axf

JavaScript Object Notation format (JSON) in row-major order
http://www.bom.gov.au/fwo/IDV60801/IDV60801.95839.json

Data quality

Most of these data are generated automatically and are frequently updated. Quality checks on data are not normally performed. It is possible for incorrect values to appear. Refer to information at About Latest Weather Observations and please check the disclaimer before using these data.